Winchmore Hill, United Kingdom
Current Conditions -  °F | °C
As of 9:50 AM on Thursday 29 Jan 2015 (Local Time) from EGLC Reporting Station
Few Clouds Few Clouds  
Wind Chill: 32°   Ceiling: Unl
Heat Index: 41°   Visibility: 6mi
Dew Point: 32°   Wind: 17mph
Humidity: 70%   Direction: 250°WSW
Pressure: 29.12"   Gusts: NA
Location:  51.64°N, 0.1°W
Report Text: EGLC 290950Z 25015KT 9999 FEW017 05/00 Q0986
Loading
Personal Weather Stations






























Interactive Weather Map New forecast layout! Learn more

10-Day Weather Forecast

Advertisements
Track Severe Weather on mobile